KBBD

Details ICAO KBBD
Name CURTIS FLD
Region United States
Timezone America/Chicago (UTC-6.0)
Plans Departing 2
Arriving 4
Stats Elevation 1,827 ft / 557 m (AMSL)
Location 31.179439° -99.323814°
Runways 2
Magnetic Variation 4.731° E
Sunrise 2017-12-14 13:29:22 UTC / 2017-12-14 07:29:22 Local
Sunset 2017-12-14 23:37:39 UTC / 2017-12-14 17:37:39 Local
Advertisement - Login to hide

Runways

ID Width Length Bearing (true) Bearing (mag) Surface Threshold Offset Overrun Length
08 110 ft / 34 m 3,514 ft / 1,071 m 91.01° 86.28° Grass 0 ft / 0 m 0 ft / 0 m
17 75 ft / 23 m 4,619 ft / 1,408 m 180.14° 175.41° Asphalt 583 ft / 178 m 0 ft / 0 m
26 110 ft / 34 m 3,514 ft / 1,071 m 271.01° 266.28° Grass 0 ft / 0 m 0 ft / 0 m
35 75 ft / 23 m 4,619 ft / 1,408 m 0.14° 355.41° Asphalt 0 ft / 0 m 0 ft / 0 m

Map

Weather


0- 5 10 15 20 25 30 35+ Temperature / ° C

Clouds and Precipitation
Forecast for 2017-12-14 18:00 UTC. Updated 19 minutes ago

Ground ~20,000 ft ~40,000 ft Winds

METAR

Not found

TAF

TAF KBBD 141120Z 1412/1512 VRB05KT P6SM SCT250 FM141700 03011KT P6SM SCT250 AMD NOT SKED

Frequencies

Recorded 118.37 MHz AWOS 3
Unicom 122.80 MHz CTAF/UNICOM
Warning: Do not use this data for real-world aviation or navigation. No guarantee of current accuracy is given.